Etusivu
METAR-TAF:

METAR-TAF

Lentoasemat :

Wittering, Englanti

Leveyspiiri: 52-37N, Pituuspiiri: 000-28W, korkeus merenpinnasta: 84 m

Tämänhetkinen sää

Tämä raportti tehtiin 20 minuuttia sitten, kello 15.50 UTC
Tuuli 3 kn lännestä/lounaasta
Lämpötila 14°C
Kosteus 72%
Ilmanpaine 1031 hPa
Näkyvyys 10 km tai enemmän
Pilvistä 2200 ft:n korkeudessa

METAR: EGXT 211550Z 25003KT 9999 OVC022 14/09 Q1031 WHT

Aika: 16:10 (16:10 UTC)

Sääennuste

Tämä raportti tehtiin 2 tuntia ja 26 minuuttia sitten, kello 13.44 UTC
Ennuste voimassa 21. päivästä klo 15 UTC - 21. päivään klo 18 UTC
Tuuli 7 kn lännestä
Näkyvyys 10 km tai enemmän
Hajonneita pilviä 2800 ft:n korkeudessa
Todennäköisyys 30% :
Ajoittain
21. päivästä klo 15 UTC - 21. päivään klo 18 UTC
Hajonneita pilviä 2400 ft:n korkeudessa

TAF: EGXT 211344Z 2115/2118 28007KT 9999 BKN028 PROB30 TEMPO 2115/2118 BKN024

Säähavainnot ja -ennusteet yli 4000 lentoasemalta (METAR- ja TAF-raportit).

Käytössä olevat sääasemat on merkitty karttaan keltaisilla ja punaisilla pisteillä.

Aseta hiiri pisteen päälle nähdäksesi sääaseman nimen.

Klikkaa sitten nähdäksesi säähavainnot ja -ennusteet.

Kartan vaihtaminen: klikkaa mustalla rastilla varustettuja vihreitä pisteitä, niin voit zoomata sisään; viivalla varustettua vihreää pistettä, niin voit zoomata ulos tai vihreitä nuolia, niin pääset viereisille kartoille.


METAR-TAF: